Cisco Butte, California Weather observations

Data are for observation ending at time listed.
 Day   Time    Ave.   Ave.  Ave.  Vector   Max.   Stn.    Total    Solar   Ave.   Snow 
  of    of     Air    Rel.  Wind   Wind    Wind   Baro.  Precip.   Rad.    Soil   Depth
Year   Day     Temp.  Hum.  Speed  Dir.    Gust   Pres.                    Temp.       
2014   (PST)    F      %     mph   deg.    mph     mb.     in.     W/m2     F      in. 
---------------------------------------------------------------------------------------  
 303    3:50   45.0    42    8.6   109     14.2   826.0    0.00       0    999.0  158.6
 303    4:00   45.0    42    9.2   105     12.9   825.0    0.00       0    999.0  158.7
 303    4:10   46.1    39    9.7   102     14.6   825.0    0.00       0    999.0  158.6
 303    4:20   46.0    38    9.4    99     14.5   825.0    0.00       0    999.0  158.4
 303    4:30   46.1    38    8.7    95     13.2   825.0    0.00       0    999.0  158.4
 303    4:40   45.9    38    7.7    95     10.8   825.0    0.00       0    999.0  158.4
 303    4:50   45.9    38    7.6    90      9.9   825.0    0.00       0    999.0  158.4
 303    5:00   46.5    37    6.6    89      8.7   825.0    0.00       0    999.0  158.4
 303    5:10   47.1    36    5.9    83      7.9   825.0    0.00       0    999.0  158.4
 303    5:20   47.9    36    5.5    87      7.6   825.0    0.00       0    999.0  158.4
 303    5:30   47.6    37    4.5    84      7.5   825.0    0.00       0    999.0  158.4
 303    5:40   47.9    37    4.2    85      7.6   825.0    0.00       0    999.0  158.4
 303    5:50   47.9    37    4.7    94      6.7   825.0    0.00       0    999.0  158.4
 303    6:00   48.2    37    4.5    89      6.8   825.0    0.00       0    999.0  158.3
 303    6:10   48.3    38    5.0    92      8.0   825.0    0.00       0    999.0  158.3
 303    6:20   48.6    38    4.3    90      6.4   825.0    0.00       1    999.0  158.3
 303    6:30   49.1    37    4.4    86      6.4   825.0    0.00       4    999.0  158.3
 303    6:40   49.0    37    5.0    84      6.8   825.0    0.00       2    999.0  158.4
 303    6:50   48.0    40    5.1    88      7.5   825.0    0.00       5    999.0  158.3
 303    7:00   48.1    40    5.8    91      7.8   825.0    0.00      16    999.0  158.3
 303    7:10   48.1    40    6.2    91      8.4   825.0    0.00      28    999.0  158.3
 303    7:20   48.4    39    5.5    86      8.3   826.0    0.00      26    999.0  158.3
 303    7:30   48.8    38    4.9    86      7.5   826.0    0.00      24    999.0  158.3
 303    7:40   48.1    40    7.3    93     10.8   826.0    0.00      27    999.0  158.4
 303    7:50   48.1    39    6.6    94      9.4   826.0    0.00      36    999.0  158.3
 303    8:00   49.3    35    6.5    98      9.8   826.0    0.00      44    999.0  158.3
 303    8:10   50.6    32    4.4    95      7.2   826.0    0.00      58    999.0  158.3
 303    8:20   51.8    30    5.1   110     11.0   826.0    0.00      90    999.0  157.5
 303    8:30   52.6    29    4.9   107      9.3   826.0    0.00      94    999.0  157.0
 303    8:40   53.2    28    5.4   111     10.2   826.0    0.00     122    999.0  156.5
 303    8:50   54.8    27    4.4   126      7.3   826.0    0.00     191    999.0  156.1
 303    9:00   56.3    25    4.6   141      9.7   826.0    0.00     257    999.0  155.5
 303    9:10   57.2    25    5.1   154     10.7   826.0    0.00     264    999.0  155.4
 303    9:20   57.5    24    5.2   172     15.1   826.0    0.00     215    999.0  155.1
 303    9:30   58.0    22    6.4   221     14.0   826.0    0.00     210    999.0  155.1
 303    9:40   58.0    23    5.5   177     13.2   825.0    0.00     241    999.0  155.4
 303    9:50   58.5    23    5.2   170     12.3   825.0    0.00     287    999.0  155.1
 303   10:00   58.2    23    5.7   178     11.0   825.0    0.00     247    999.0  154.9
 303   10:10   58.9    23    5.2   203     14.9   825.0    0.00     326    999.0  154.8
 303   10:20   59.0    23    6.1   210     14.1   825.0    0.00     294    999.0  154.5
 303   10:30   58.6    23    5.4   204     17.7   825.0    0.00     245    999.0  155.2
 303   10:40   59.1    23    5.2   200     13.0   825.0    0.00     343    999.0  155.3
 303   10:50   59.8    23    4.7   216     13.4   825.0    0.00     336    999.0  155.2
 303   11:00   59.5    23    5.9   194     12.4   825.0    0.00     345    999.0  155.2
 303   11:10   59.8    23    5.1   206     12.4   825.0    0.00     346    999.0  155.2
 303   11:20   59.6    23    4.6   202     12.8   825.0    0.00     381    999.0  155.0
 303   11:30   60.5    22    5.3   194     12.3   824.0    0.00     423    999.0  154.6
 303   11:40   60.1    23    7.9   210     15.9   824.0    0.00     422    999.0  154.6
 303   11:50   60.9    23    3.7   216     10.5   824.0    0.00     314    999.0  154.6
 303   12:00   60.4    23    6.3   170     17.1   824.0    0.00     409    999.0  154.4
 303   12:10   60.6    23    5.3   220     13.7   824.0    0.00     383    999.0   91.4
 303   12:20   60.2    24    5.5   216     14.5   824.0    0.00     268    999.0  124.2
 303   12:30   60.0    23    6.5   218     16.9   824.0    0.00     367    999.0  154.4
 303   12:40   60.7    24    6.4   216     13.8   823.0    0.00     403    999.0   76.1
 303   12:50   60.9    23    6.7   210     16.8   823.0    0.00     389    999.0   61.5
 303   13:00   60.7    24    8.7   249     20.3   823.0    0.00     398    999.0   15.1
 303   13:10   60.7    25    8.9   240     19.4   823.0    0.00     386    999.0   16.1
 303   13:20   60.5    26    7.3   232     15.1   823.0    0.00     333    999.0   30.8
 303   13:30   60.7    25    8.6   258     15.3   823.0    0.00     353    999.0   -0.3
 303   13:40   60.4    25   10.1   259     20.0   823.0    0.00     328    999.0   -0.2
 303   13:50   60.1    24   13.8   264     24.5   823.0    0.00     293    999.0   -0.2
 303   14:00   58.8    26   12.3   270     22.9   823.0    0.00     167    999.0   -0.1
 303   14:10   58.3    27    7.2   244     16.6   823.0    0.00     192    999.0   15.6
 303   14:20   58.2    26   11.3   260     22.3   823.0    0.00     139    999.0   79.0
 303   14:30   58.3    26    7.2   252     18.7   823.0    0.00     220    999.0  157.1
 303   14:40   58.7    27   10.1   260     19.4   823.0    0.00     225    999.0  125.8
 303   14:50   58.8    27    7.9   260     18.3   822.0    0.00     221    999.0  157.4
 303   15:00   58.6    27    9.2   269     16.4   822.0    0.00     184    999.0  157.2
 303   15:10   58.0    28    7.5   257     16.4   822.0    0.00      90    999.0  157.0
 303   15:20   56.5    29   10.2   259     23.4   822.0    0.00      51    999.0   14.7
 303   15:30   55.8    30    5.7   222     14.4   822.0    0.00      59    999.0   79.3
 303   15:40   55.2    30    5.6   227     15.1   822.0    0.00      26    999.0  141.2
 303   15:50   54.6    30    5.4   230     13.1   822.0    0.00      22    999.0  156.8
 303   16:00   54.2    30    5.4   234     12.1   822.0    0.00      39    999.0  156.6
 303   16:10   54.3    30    6.4   270     11.3   822.0    0.00      54    999.0  140.4
 303   16:20   53.8    34    7.9   257     15.3   823.0    0.00      37    999.0   78.3
 303   16:30   53.1    38    7.2   268     12.6   822.0    0.00      26    999.0  125.4
 303   16:40   52.3    42    7.5   266     11.8   822.0    0.00       9    999.0   -0.1
 303   16:50   51.5    45    5.3   274      8.0   822.0    0.00       5    999.0   -0.0
 303   17:00   50.7    49    4.8   268      8.5   822.0    0.00       2    999.0   -0.0
 303   17:10   50.3    50    3.6   265      6.1   822.0    0.00       2    999.0    0.0
 303   17:20   49.9    49    5.5   270      9.7   822.0    0.00       0    999.0    0.1
 303   17:30   50.1    46    4.5   262      9.2   822.0    0.00       0    999.0    0.1
 303   17:40   50.2    43    2.3   205      6.2   822.0    0.00       0    999.0    0.2
 303   17:50   50.4    41    4.1   204      9.1   822.0    0.00       0    999.0    0.1
 303   18:00   50.5    41    3.5   178      9.0   822.0    0.00       0    999.0    0.2
 303   18:10   50.8    39    5.4   190     13.2   822.0    0.00       0    999.0    0.1
 303   18:20   50.6    39    5.5   172     12.1   822.0    0.00       0    999.0    0.0
 303   18:30   50.5    38    4.6   228      9.4   822.0    0.00       0    999.0    0.2
 303   18:40   50.1    38    4.5   197     10.7   822.0    0.00       0    999.0    0.2
 303   18:50   50.0    39    4.4   169     10.5   822.0    0.00       0    999.0    0.2
 303   19:00   49.7    40    4.9   239     11.2   822.0    0.00       0    999.0    0.1
 303   19:10   49.0    44    4.2   262     10.3   822.0    0.00       0    999.0    0.1
 303   19:20   48.8    45    3.7   242      8.6   822.0    0.00       0    999.0    0.1
 303   19:30   48.3    47    2.9   242      6.8   822.0    0.00       0    999.0    0.1
 303   19:40   48.3    48    2.7   180      8.0   822.0    0.00       0    999.0    0.2
 303   19:50   48.3    47    2.1   187      8.6   822.0    0.00       0    999.0    0.2
 303   20:00   48.3    46    3.9   170      8.0   822.0    0.00       0    999.0    0.1
 303   20:10   48.4    46    4.5   167     11.2   822.0    0.00       0    999.0    0.1
 303   20:20   48.6    45    4.6   165     12.3   822.0    0.00       0    999.0    0.2
 303   20:30   48.9    43    4.7   165     11.0   822.0    0.00       0    999.0    0.2
 303   20:40   49.0    42    5.1   158     12.0   822.0    0.00       0    999.0    0.1
 303   20:50   49.2    40    4.8   158     11.5   822.0    0.00       0    999.0    0.0
 303   21:00   49.5    38    6.2   181     14.2   822.0    0.00       0    999.0    0.1
 303   21:10   49.5    38    5.1   156     10.4   822.0    0.00       0    999.0    0.1
 303   21:20   49.4    37    5.5   159     11.0   821.0    0.00       0    999.0    0.0
 303   21:30   49.5    37    5.1   177     11.2   821.0    0.00       0    999.0    0.2
 303   21:40   50.0    35    7.0   191     15.6   821.0    0.00       0    999.0   15.8
 303   21:50   49.9    36    6.4   223     15.4   822.0    0.00       0    999.0    0.1
 303   22:00   49.8    36    7.9   194     17.7   821.0    0.00       0    999.0    0.1
 303   22:10   49.5    37    6.2   207     19.4   821.0    0.00       0    999.0    0.1
 303   22:20   49.2    38    6.9   202     19.3   821.0    0.00       0    999.0   -0.0
 303   22:30   49.3    38    7.5   186     16.4   821.0    0.00       0    999.0    0.0
 303   22:40   49.1    38    5.4   182     11.1   821.0    0.00       0    999.0    0.1
 303   22:50   49.0    38    7.5   190     14.1   821.0    0.00       0    999.0    0.2
 303   23:00   48.9    38    6.5   206     16.1   821.0    0.00       0    999.0    0.0
 303   23:10   48.9    38    9.1   186     20.0   821.0    0.00       0    999.0    0.2
 303   23:20   48.6    40    6.4   200     16.8   821.0    0.00       0    999.0    0.1
 303   23:30   48.6    40    8.8   203     20.8   821.0    0.00       0    999.0    0.2
 303   23:40   48.6    40    7.7   202     16.9   821.0    0.00       0    999.0    0.2
 303   23:50   48.4    41    7.6   206     16.4   821.0    0.00       0    999.0    0.1
 304    0:00   48.0    42    5.9   224     16.7   820.0    0.00       0    999.0    0.0
 304    0:10   47.6    43    6.0   195     20.1   820.0    0.00       0    999.0    0.1
 304    0:20   47.6    44    8.6   196     20.5   820.0    0.00       0    999.0    0.1
 304    0:30   47.2    45    7.0   209     16.4   820.0    0.00       0    999.0    0.1
 304    0:40   46.7    46    5.9   221     18.2   820.0    0.00       0    999.0    0.2
 304    0:50   46.6    47    5.6   206     14.7   820.0    0.00       0    999.0    0.2
 304    1:00   46.3    48    6.2   202     17.5   820.0    0.00       0    999.0    0.2
 304    1:10   46.1    48    5.9   210     17.2   820.0    0.00       0    999.0    0.1
 304    1:20   45.7    49    4.7   192     13.7   820.0    0.00       0    999.0    0.1
 304    1:30   45.5    50    7.5   205     19.2   820.0    0.00       0    999.0    0.1
 304    1:40   45.0    51    6.2   207     16.0   820.0    0.00       0    999.0   -0.1
 304    1:50   44.7    52    5.6   226     14.5   820.0    0.00       0    999.0    0.0
 304    2:00   44.2    54    5.8   236     14.4   820.0    0.00       0    999.0    0.1
 304    2:10   44.1    56    8.8   225     18.6   820.0    0.00       0    999.0    0.0
 304    2:20   43.7    58    7.0   237     18.6   820.0    0.00       0    999.0    0.1
 304    2:30   43.2    60    6.0   223     19.5   820.0    0.00       0    999.0    0.2
 304    2:40   42.8    63    7.3   215     16.0   820.0    0.00       0    999.0    0.2
 304    2:50   42.5    65    6.7   197     19.2   820.0    0.00       0    999.0   -0.0
 304    3:00   42.1    68    6.9   220     16.7   820.0    0.00       0    999.0    0.0
 304    3:10   41.7    71    5.7   220     19.3   820.0    0.00       0    999.0    0.1
 304    3:20   41.3    73    6.9   214     16.2   820.0    0.00       0    999.0    0.1
 304    3:30   41.2    75    6.4   213     16.9   820.0    0.00       0    999.0    0.2
 304    3:40   41.0    77    5.8   205     16.1   819.0    0.00       0    999.0    0.2

Return to Cisco Butte graphs page.


Western Regional Climate Center,wrcc@dri.edu